sensor_id;sensor_type;location;lat;lon;timestamp;P1;durP1;ratioP1;P2;durP2;ratioP2
18174;SDS011;9212;50.894;16.714;2023-07-22T00:01:44;3.63;;;2.97;;
18174;SDS011;9212;50.894;16.714;2023-07-22T00:04:14;3.93;;;3.30;;
18174;SDS011;9212;50.894;16.714;2023-07-22T00:06:41;5.43;;;3.97;;
18174;SDS011;9212;50.894;16.714;2023-07-22T00:09:08;4.57;;;3.80;;
18174;SDS011;9212;50.894;16.714;2023-07-22T00:11:36;5.70;;;3.70;;
18174;SDS011;9212;50.894;16.714;2023-07-22T00:14:06;9.77;;;4.00;;
18174;SDS011;9212;50.894;16.714;2023-07-22T00:16:35;6.93;;;3.73;;
18174;SDS011;9212;50.894;16.714;2023-07-22T00:19:03;5.40;;;3.50;;
18174;SDS011;9212;50.894;16.714;2023-07-22T00:21:32;4.50;;;3.73;;
18174;SDS011;9212;50.894;16.714;2023-07-22T00:24:00;3.80;;;3.50;;
18174;SDS011;9212;50.894;16.714;2023-07-22T00:26:28;4.63;;;3.67;;
18174;SDS011;9212;50.894;16.714;2023-07-22T00:28:55;4.13;;;3.60;;
18174;SDS011;9212;50.894;16.714;2023-07-22T00:31:22;4.27;;;3.60;;
18174;SDS011;9212;50.894;16.714;2023-07-22T00:33:51;4.87;;;3.47;;
18174;SDS011;9212;50.894;16.714;2023-07-22T00:36:18;4.10;;;3.63;;
18174;SDS011;9212;50.894;16.714;2023-07-22T00:38:45;3.93;;;3.57;;
18174;SDS011;9212;50.894;16.714;2023-07-22T00:41:12;5.87;;;3.43;;
18174;SDS011;9212;50.894;16.714;2023-07-22T00:43:40;4.33;;;3.80;;
18174;SDS011;9212;50.894;16.714;2023-07-22T00:46:07;4.83;;;3.77;;
18174;SDS011;9212;50.894;16.714;2023-07-22T00:48:34;5.53;;;3.60;;
18174;SDS011;9212;50.894;16.714;2023-07-22T00:51:03;5.47;;;3.93;;
18174;SDS011;9212;50.894;16.714;2023-07-22T00:53:30;5.37;;;4.17;;
18174;SDS011;9212;50.894;16.714;2023-07-22T00:55:57;6.07;;;4.33;;
18174;SDS011;9212;50.894;16.714;2023-07-22T00:58:24;7.67;;;4.27;;
18174;SDS011;9212;50.894;16.714;2023-07-22T01:00:52;5.63;;;4.53;;
18174;SDS011;9212;50.894;16.714;2023-07-22T01:03:19;6.43;;;3.63;;
18174;SDS011;9212;50.894;16.714;2023-07-22T01:05:46;4.80;;;4.20;;
18174;SDS011;9212;50.894;16.714;2023-07-22T01:08:15;4.50;;;3.90;;
18174;SDS011;9212;50.894;16.714;2023-07-22T01:10:43;6.80;;;3.90;;
18174;SDS011;9212;50.894;16.714;2023-07-22T01:13:10;4.83;;;4.20;;
18174;SDS011;9212;50.894;16.714;2023-07-22T01:15:39;13.20;;;4.20;;
18174;SDS011;9212;50.894;16.714;2023-07-22T01:18:13;4.50;;;4.00;;
18174;SDS011;9212;50.894;16.714;2023-07-22T01:20:41;4.60;;;4.20;;
18174;SDS011;9212;50.894;16.714;2023-07-22T01:23:10;7.07;;;4.20;;
18174;SDS011;9212;50.894;16.714;2023-07-22T01:25:37;4.90;;;4.40;;
18174;SDS011;9212;50.894;16.714;2023-07-22T01:28:08;4.90;;;4.40;;
18174;SDS011;9212;50.894;16.714;2023-07-22T01:30:36;5.10;;;4.60;;
18174;SDS011;9212;50.894;16.714;2023-07-22T01:33:04;5.77;;;4.73;;
18174;SDS011;9212;50.894;16.714;2023-07-22T01:35:32;6.63;;;5.10;;
18174;SDS011;9212;50.894;16.714;2023-07-22T01:37:59;6.17;;;4.63;;
18174;SDS011;9212;50.894;16.714;2023-07-22T01:40:28;7.27;;;5.00;;
18174;SDS011;9212;50.894;16.714;2023-07-22T01:42:56;6.47;;;5.00;;
18174;SDS011;9212;50.894;16.714;2023-07-22T01:45:23;7.00;;;5.37;;
18174;SDS011;9212;50.894;16.714;2023-07-22T01:47:50;7.13;;;5.03;;
18174;SDS011;9212;50.894;16.714;2023-07-22T01:50:17;9.93;;;5.40;;
18174;SDS011;9212;50.894;16.714;2023-07-22T01:52:45;6.43;;;5.30;;
18174;SDS011;9212;50.894;16.714;2023-07-22T01:55:12;7.63;;;5.03;;
18174;SDS011;9212;50.894;16.714;2023-07-22T01:57:41;5.77;;;4.97;;
18174;SDS011;9212;50.894;16.714;2023-07-22T02:00:09;8.20;;;5.17;;
18174;SDS011;9212;50.894;16.714;2023-07-22T02:02:37;6.50;;;5.43;;
18174;SDS011;9212;50.894;16.714;2023-07-22T02:05:04;5.27;;;4.77;;
18174;SDS011;9212;50.894;16.714;2023-07-22T02:07:32;6.17;;;4.97;;
18174;SDS011;9212;50.894;16.714;2023-07-22T02:09:59;5.50;;;4.70;;
18174;SDS011;9212;50.894;16.714;2023-07-22T02:12:26;6.47;;;4.50;;
18174;SDS011;9212;50.894;16.714;2023-07-22T02:14:55;6.63;;;4.47;;
18174;SDS011;9212;50.894;16.714;2023-07-22T02:17:22;5.10;;;4.60;;
18174;SDS011;9212;50.894;16.714;2023-07-22T02:19:50;9.53;;;4.73;;
18174;SDS011;9212;50.894;16.714;2023-07-22T02:22:17;7.10;;;4.33;;
18174;SDS011;9212;50.894;16.714;2023-07-22T02:24:45;4.53;;;4.13;;
18174;SDS011;9212;50.894;16.714;2023-07-22T02:27:12;6.10;;;4.37;;
18174;SDS011;9212;50.894;16.714;2023-07-22T02:29:39;9.40;;;4.50;;
18174;SDS011;9212;50.894;16.714;2023-07-22T02:32:08;4.03;;;3.70;;
18174;SDS011;9212;50.894;16.714;2023-07-22T02:34:35;5.27;;;4.20;;
18174;SDS011;9212;50.894;16.714;2023-07-22T02:37:03;6.13;;;4.20;;
18174;SDS011;9212;50.894;16.714;2023-07-22T02:39:31;5.03;;;4.00;;
18174;SDS011;9212;50.894;16.714;2023-07-22T02:41:58;7.00;;;4.63;;
18174;SDS011;9212;50.894;16.714;2023-07-22T02:44:27;8.20;;;4.37;;
18174;SDS011;9212;50.894;16.714;2023-07-22T02:46:54;6.83;;;3.53;;
18174;SDS011;9212;50.894;16.714;2023-07-22T02:49:22;6.03;;;4.13;;
18174;SDS011;9212;50.894;16.714;2023-07-22T02:51:50;6.10;;;3.87;;
18174;SDS011;9212;50.894;16.714;2023-07-22T02:54:17;6.93;;;4.03;;
18174;SDS011;9212;50.894;16.714;2023-07-22T02:56:44;9.13;;;4.13;;
18174;SDS011;9212;50.894;16.714;2023-07-22T02:59:12;5.57;;;4.10;;
18174;SDS011;9212;50.894;16.714;2023-07-22T03:01:39;7.17;;;4.87;;
18174;SDS011;9212;50.894;16.714;2023-07-22T03:04:06;8.10;;;4.03;;
18174;SDS011;9212;50.894;16.714;2023-07-22T03:06:35;5.37;;;4.37;;
18174;SDS011;9212;50.894;16.714;2023-07-22T03:09:03;8.57;;;4.30;;
18174;SDS011;9212;50.894;16.714;2023-07-22T03:11:31;7.37;;;4.80;;
18174;SDS011;9212;50.894;16.714;2023-07-22T03:13:59;4.93;;;4.10;;
18174;SDS011;9212;50.894;16.714;2023-07-22T03:16:27;8.10;;;4.43;;
18174;SDS011;9212;50.894;16.714;2023-07-22T03:18:54;8.57;;;4.30;;
18174;SDS011;9212;50.894;16.714;2023-07-22T03:21:21;8.50;;;4.40;;
18174;SDS011;9212;50.894;16.714;2023-07-22T03:23:50;6.50;;;4.13;;
18174;SDS011;9212;50.894;16.714;2023-07-22T03:26:17;5.17;;;4.00;;
18174;SDS011;9212;50.894;16.714;2023-07-22T03:28:44;5.77;;;4.10;;
18174;SDS011;9212;50.894;16.714;2023-07-22T03:31:11;6.03;;;4.27;;
18174;SDS011;9212;50.894;16.714;2023-07-22T03:33:39;4.63;;;3.90;;
18174;SDS011;9212;50.894;16.714;2023-07-22T03:36:08;6.93;;;4.60;;
18174;SDS011;9212;50.894;16.714;2023-07-22T03:38:35;7.37;;;3.90;;
18174;SDS011;9212;50.894;16.714;2023-07-22T03:41:03;13.87;;;4.07;;
18174;SDS011;9212;50.894;16.714;2023-07-22T03:43:31;7.00;;;3.63;;
18174;SDS011;9212;50.894;16.714;2023-07-22T03:45:58;7.17;;;3.87;;
18174;SDS011;9212;50.894;16.714;2023-07-22T03:48:25;5.47;;;4.00;;
18174;SDS011;9212;50.894;16.714;2023-07-22T03:50:52;5.43;;;3.80;;
18174;SDS011;9212;50.894;16.714;2023-07-22T03:53:19;7.33;;;4.43;;
18174;SDS011;9212;50.894;16.714;2023-07-22T03:55:47;4.20;;;3.47;;
18174;SDS011;9212;50.894;16.714;2023-07-22T03:58:15;6.63;;;3.43;;
18174;SDS011;9212;50.894;16.714;2023-07-22T04:00:42;4.80;;;3.43;;
18174;SDS011;9212;50.894;16.714;2023-07-22T04:03:10;8.07;;;3.50;;
18174;SDS011;9212;50.894;16.714;2023-07-22T04:05:37;3.90;;;3.50;;
18174;SDS011;9212;50.894;16.714;2023-07-22T04:08:04;5.37;;;3.40;;
18174;SDS011;9212;50.894;16.714;2023-07-22T04:10:31;4.07;;;3.17;;
18174;SDS011;9212;50.894;16.714;2023-07-22T04:12:58;4.43;;;3.43;;
18174;SDS011;9212;50.894;16.714;2023-07-22T04:15:27;4.00;;;3.33;;
18174;SDS011;9212;50.894;16.714;2023-07-22T04:17:54;3.77;;;3.30;;
18174;SDS011;9212;50.894;16.714;2023-07-22T04:20:22;6.03;;;3.70;;
18174;SDS011;9212;50.894;16.714;2023-07-22T04:22:49;4.83;;;3.10;;
18174;SDS011;9212;50.894;16.714;2023-07-22T04:25:16;5.40;;;3.43;;
18174;SDS011;9212;50.894;16.714;2023-07-22T04:27:45;3.30;;;3.00;;
18174;SDS011;9212;50.894;16.714;2023-07-22T04:30:12;4.17;;;3.07;;
18174;SDS011;9212;50.894;16.714;2023-07-22T04:32:47;3.03;;;2.73;;
18174;SDS011;9212;50.894;16.714;2023-07-22T04:35:14;6.40;;;3.70;;
18174;SDS011;9212;50.894;16.714;2023-07-22T04:37:43;4.77;;;3.20;;
18174;SDS011;9212;50.894;16.714;2023-07-22T04:40:10;3.97;;;3.47;;
18174;SDS011;9212;50.894;16.714;2023-07-22T04:42:39;5.67;;;3.80;;
18174;SDS011;9212;50.894;16.714;2023-07-22T04:45:07;8.57;;;4.37;;
18174;SDS011;9212;50.894;16.714;2023-07-22T04:47:35;5.67;;;3.93;;
18174;SDS011;9212;50.894;16.714;2023-07-22T04:50:05;9.75;;;3.50;;
18174;SDS011;9212;50.894;16.714;2023-07-22T04:52:34;5.45;;;3.17;;
18174;SDS011;9212;50.894;16.714;2023-07-22T04:55:01;7.28;;;3.20;;
18174;SDS011;9212;50.894;16.714;2023-07-22T04:57:33;5.20;;;3.15;;
18174;SDS011;9212;50.894;16.714;2023-07-22T05:00:01;9.38;;;3.75;;
18174;SDS011;9212;50.894;16.714;2023-07-22T05:02:29;3.88;;;2.75;;
18174;SDS011;9212;50.894;16.714;2023-07-22T05:04:56;6.78;;;2.80;;
18174;SDS011;9212;50.894;16.714;2023-07-22T05:07:25;4.90;;;2.85;;
18174;SDS011;9212;50.894;16.714;2023-07-22T05:09:52;4.78;;;2.95;;
18174;SDS011;9212;50.894;16.714;2023-07-22T05:12:20;7.20;;;3.40;;
18174;SDS011;9212;50.894;16.714;2023-07-22T05:14:47;5.88;;;3.10;;
18174;SDS011;9212;50.894;16.714;2023-07-22T05:17:15;4.57;;;3.10;;
18174;SDS011;9212;50.894;16.714;2023-07-22T05:19:42;5.70;;;2.78;;
18174;SDS011;9212;50.894;16.714;2023-07-22T05:22:10;4.95;;;2.42;;
18174;SDS011;9212;50.894;16.714;2023-07-22T05:24:38;5.80;;;2.47;;
18174;SDS011;9212;50.894;16.714;2023-07-22T05:27:06;5.65;;;2.17;;
18174;SDS011;9212;50.894;16.714;2023-07-22T05:29:33;3.47;;;2.30;;
18174;SDS011;9212;50.894;16.714;2023-07-22T05:32:00;3.17;;;2.33;;
18174;SDS011;9212;50.894;16.714;2023-07-22T05:34:28;5.70;;;2.38;;
18174;SDS011;9212;50.894;16.714;2023-07-22T05:36:55;3.78;;;1.92;;
18174;SDS011;9212;50.894;16.714;2023-07-22T05:39:22;5.05;;;2.13;;
18174;SDS011;9212;50.894;16.714;2023-07-22T05:41:51;1.98;;;1.85;;
18174;SDS011;9212;50.894;16.714;2023-07-22T05:44:19;2.10;;;1.90;;
18174;SDS011;9212;50.894;16.714;2023-07-22T05:46:46;4.32;;;1.98;;
18174;SDS011;9212;50.894;16.714;2023-07-22T05:49:13;4.40;;;2.03;;
18174;SDS011;9212;50.894;16.714;2023-07-22T05:51:41;2.70;;;1.88;;
18174;SDS011;9212;50.894;16.714;2023-07-22T05:54:08;3.42;;;2.05;;
18174;SDS011;9212;50.894;16.714;2023-07-22T05:56:35;2.42;;;2.22;;
18174;SDS011;9212;50.894;16.714;2023-07-22T05:59:05;2.35;;;1.83;;
18174;SDS011;9212;50.894;16.714;2023-07-22T06:01:32;1.90;;;1.80;;
18174;SDS011;9212;50.894;16.714;2023-07-22T06:03:59;2.63;;;2.00;;
18174;SDS011;9212;50.894;16.714;2023-07-22T06:06:27;2.13;;;1.92;;
18174;SDS011;9212;50.894;16.714;2023-07-22T06:08:54;1.80;;;1.70;;
18174;SDS011;9212;50.894;16.714;2023-07-22T06:11:21;2.80;;;2.08;;
18174;SDS011;9212;50.894;16.714;2023-07-22T06:13:49;2.55;;;2.33;;
18174;SDS011;9212;50.894;16.714;2023-07-22T06:16:18;2.28;;;1.98;;
18174;SDS011;9212;50.894;16.714;2023-07-22T06:18:45;1.65;;;1.55;;
18174;SDS011;9212;50.894;16.714;2023-07-22T06:21:12;2.50;;;2.20;;
18174;SDS011;9212;50.894;16.714;2023-07-22T06:23:39;2.83;;;2.00;;
18174;SDS011;9212;50.894;16.714;2023-07-22T06:26:07;2.10;;;1.90;;
18174;SDS011;9212;50.894;16.714;2023-07-22T06:28:34;2.95;;;1.80;;
18174;SDS011;9212;50.894;16.714;2023-07-22T06:31:01;1.98;;;1.88;;
18174;SDS011;9212;50.894;16.714;2023-07-22T06:33:30;5.78;;;2.30;;
18174;SDS011;9212;50.894;16.714;2023-07-22T06:35:58;3.90;;;1.80;;
18174;SDS011;9212;50.894;16.714;2023-07-22T06:38:25;1.98;;;1.77;;
18174;SDS011;9212;50.894;16.714;2023-07-22T06:40:52;2.10;;;1.88;;
18174;SDS011;9212;50.894;16.714;2023-07-22T06:43:20;2.42;;;2.22;;
18174;SDS011;9212;50.894;16.714;2023-07-22T06:45:47;2.35;;;1.90;;
18174;SDS011;9212;50.894;16.714;2023-07-22T06:48:15;2.13;;;1.92;;
18174;SDS011;9212;50.894;16.714;2023-07-22T06:50:47;2.25;;;2.05;;
18174;SDS011;9212;50.894;16.714;2023-07-22T06:53:15;2.00;;;1.90;;
18174;SDS011;9212;50.894;16.714;2023-07-22T06:55:47;1.98;;;1.88;;
18174;SDS011;9212;50.894;16.714;2023-07-22T06:58:15;1.83;;;1.73;;
18174;SDS011;9212;50.894;16.714;2023-07-22T07:00:42;2.00;;;1.85;;
18174;SDS011;9212;50.894;16.714;2023-07-22T07:03:09;2.95;;;2.63;;
18174;SDS011;9212;50.894;16.714;2023-07-22T07:05:36;3.47;;;2.50;;
18174;SDS011;9212;50.894;16.714;2023-07-22T07:08:08;7.97;;;2.50;;
18174;SDS011;9212;50.894;16.714;2023-07-22T07:10:36;2.70;;;2.50;;
18174;SDS011;9212;50.894;16.714;2023-07-22T07:13:04;4.07;;;2.70;;
18174;SDS011;9212;50.894;16.714;2023-07-22T07:15:31;5.47;;;2.75;;
18174;SDS011;9212;50.894;16.714;2023-07-22T07:17:59;3.75;;;2.58;;
18174;SDS011;9212;50.894;16.714;2023-07-22T07:20:26;3.47;;;2.40;;
18174;SDS011;9212;50.894;16.714;2023-07-22T07:22:53;4.13;;;2.40;;
18174;SDS011;9212;50.894;16.714;2023-07-22T07:25:22;2.60;;;2.40;;
18174;SDS011;9212;50.894;16.714;2023-07-22T07:27:50;4.00;;;2.75;;
18174;SDS011;9212;50.894;16.714;2023-07-22T07:30:17;2.70;;;2.10;;
18174;SDS011;9212;50.894;16.714;2023-07-22T07:32:44;3.47;;;2.38;;
18174;SDS011;9212;50.894;16.714;2023-07-22T07:35:11;5.07;;;2.97;;
18174;SDS011;9212;50.894;16.714;2023-07-22T07:37:39;3.30;;;2.65;;
18174;SDS011;9212;50.894;16.714;2023-07-22T07:40:06;4.00;;;2.22;;
18174;SDS011;9212;50.894;16.714;2023-07-22T07:42:35;2.13;;;2.03;;
18174;SDS011;9212;50.894;16.714;2023-07-22T07:45:03;2.78;;;2.10;;
18174;SDS011;9212;50.894;16.714;2023-07-22T07:47:30;3.13;;;2.17;;
18174;SDS011;9212;50.894;16.714;2023-07-22T07:49:57;3.10;;;2.08;;
18174;SDS011;9212;50.894;16.714;2023-07-22T07:52:25;2.08;;;1.88;;
18174;SDS011;9212;50.894;16.714;2023-07-22T07:54:52;2.05;;;1.77;;
18174;SDS011;9212;50.894;16.714;2023-07-22T07:57:19;1.90;;;1.80;;
18174;SDS011;9212;50.894;16.714;2023-07-22T07:59:48;4.47;;;1.98;;
18174;SDS011;9212;50.894;16.714;2023-07-22T08:02:16;2.70;;;2.03;;
18174;SDS011;9212;50.894;16.714;2023-07-22T08:04:43;3.33;;;2.20;;
18174;SDS011;9212;50.894;16.714;2023-07-22T08:07:10;2.65;;;1.88;;
18174;SDS011;9212;50.894;16.714;2023-07-22T08:09:42;5.03;;;2.00;;
18174;SDS011;9212;50.894;16.714;2023-07-22T08:12:09;4.25;;;1.90;;
18174;SDS011;9212;50.894;16.714;2023-07-22T08:14:36;3.28;;;2.15;;
18174;SDS011;9212;50.894;16.714;2023-07-22T08:17:05;3.90;;;1.73;;
18174;SDS011;9212;50.894;16.714;2023-07-22T08:19:32;6.03;;;1.80;;
18174;SDS011;9212;50.894;16.714;2023-07-22T08:22:00;2.35;;;1.63;;
18174;SDS011;9212;50.894;16.714;2023-07-22T08:24:27;2.67;;;1.83;;
18174;SDS011;9212;50.894;16.714;2023-07-22T08:26:55;2.55;;;1.50;;
18174;SDS011;9212;50.894;16.714;2023-07-22T08:29:22;2.80;;;1.60;;
18174;SDS011;9212;50.894;16.714;2023-07-22T08:31:49;3.78;;;1.58;;
18174;SDS011;9212;50.894;16.714;2023-07-22T08:34:18;4.38;;;1.67;;
18174;SDS011;9212;50.894;16.714;2023-07-22T08:36:45;1.35;;;1.33;;
18174;SDS011;9212;50.894;16.714;2023-07-22T08:39:12;4.20;;;1.48;;
18174;SDS011;9212;50.894;16.714;2023-07-22T08:41:40;2.22;;;2.00;;
18174;SDS011;9212;50.894;16.714;2023-07-22T08:44:07;2.22;;;1.60;;
18174;SDS011;9212;50.894;16.714;2023-07-22T08:46:35;2.75;;;2.03;;
18174;SDS011;9212;50.894;16.714;2023-07-22T08:49:03;3.20;;;1.80;;
18174;SDS011;9212;50.894;16.714;2023-07-22T08:51:33;2.08;;;1.83;;
18174;SDS011;9212;50.894;16.714;2023-07-22T08:54:02;2.03;;;1.80;;
18174;SDS011;9212;50.894;16.714;2023-07-22T08:56:30;2.42;;;1.80;;
18174;SDS011;9212;50.894;16.714;2023-07-22T08:58:57;4.72;;;2.08;;
18174;SDS011;9212;50.894;16.714;2023-07-22T09:01:25;3.20;;;1.80;;
18174;SDS011;9212;50.894;16.714;2023-07-22T09:03:52;2.47;;;1.83;;
18174;SDS011;9212;50.894;16.714;2023-07-22T09:06:21;2.42;;;1.80;;
18174;SDS011;9212;50.894;16.714;2023-07-22T09:08:50;5.38;;;2.08;;
18174;SDS011;9212;50.894;16.714;2023-07-22T09:11:18;2.10;;;1.65;;
18174;SDS011;9212;50.894;16.714;2023-07-22T09:13:46;3.75;;;1.92;;
18174;SDS011;9212;50.894;16.714;2023-07-22T09:16:14;3.05;;;1.67;;
18174;SDS011;9212;50.894;16.714;2023-07-22T09:18:42;5.72;;;1.83;;
18174;SDS011;9212;50.894;16.714;2023-07-22T09:21:10;2.10;;;1.88;;
18174;SDS011;9212;50.894;16.714;2023-07-22T09:23:37;4.82;;;2.10;;
18174;SDS011;9212;50.894;16.714;2023-07-22T09:26:10;6.43;;;2.38;;
18174;SDS011;9212;50.894;16.714;2023-07-22T09:28:47;2.45;;;1.90;;
18174;SDS011;9212;50.894;16.714;2023-07-22T09:31:14;2.67;;;1.98;;
18174;SDS011;9212;50.894;16.714;2023-07-22T09:33:41;2.95;;;1.75;;
18174;SDS011;9212;50.894;16.714;2023-07-22T09:36:09;6.75;;;2.58;;
18174;SDS011;9212;50.894;16.714;2023-07-22T09:38:37;2.90;;;1.90;;
18174;SDS011;9212;50.894;16.714;2023-07-22T09:41:04;3.72;;;2.10;;
18174;SDS011;9212;50.894;16.714;2023-07-22T09:43:35;2.97;;;1.70;;
18174;SDS011;9212;50.894;16.714;2023-07-22T09:46:06;3.53;;;1.80;;
18174;SDS011;9212;50.894;16.714;2023-07-22T09:48:40;3.53;;;2.20;;
18174;SDS011;9212;50.894;16.714;2023-07-22T09:51:11;3.08;;;2.00;;
18174;SDS011;9212;50.894;16.714;2023-07-22T09:53:43;3.65;;;1.98;;
18174;SDS011;9212;50.894;16.714;2023-07-22T09:56:11;5.28;;;1.75;;
18174;SDS011;9212;50.894;16.714;2023-07-22T09:58:39;2.08;;;1.80;;
18174;SDS011;9212;50.894;16.714;2023-07-22T10:01:07;12.82;;;3.15;;
18174;SDS011;9212;50.894;16.714;2023-07-22T10:03:34;11.10;;;2.13;;
18174;SDS011;9212;50.894;16.714;2023-07-22T10:06:04;3.38;;;1.60;;
18174;SDS011;9212;50.894;16.714;2023-07-22T10:08:34;1.80;;;1.63;;
18174;SDS011;9212;50.894;16.714;2023-07-22T10:11:03;3.28;;;1.70;;
18174;SDS011;9212;50.894;16.714;2023-07-22T10:13:32;3.75;;;1.73;;
18174;SDS011;9212;50.894;16.714;2023-07-22T10:16:01;4.57;;;1.73;;
18174;SDS011;9212;50.894;16.714;2023-07-22T10:18:28;3.75;;;2.00;;
18174;SDS011;9212;50.894;16.714;2023-07-22T10:20:57;3.17;;;1.60;;
18174;SDS011;9212;50.894;16.714;2023-07-22T10:23:25;1.83;;;1.70;;
18174;SDS011;9212;50.894;16.714;2023-07-22T10:25:52;2.80;;;1.90;;
18174;SDS011;9212;50.894;16.714;2023-07-22T10:28:21;1.80;;;1.67;;
18174;SDS011;9212;50.894;16.714;2023-07-22T10:30:49;2.42;;;2.10;;
18174;SDS011;9212;50.894;16.714;2023-07-22T10:33:18;4.10;;;1.88;;
18174;SDS011;9212;50.894;16.714;2023-07-22T10:38:28;3.80;;;2.00;;
18174;SDS011;9212;50.894;16.714;2023-07-22T10:40:55;3.10;;;1.83;;
18174;SDS011;9212;50.894;16.714;2023-07-22T10:43:23;3.70;;;1.92;;
18174;SDS011;9212;50.894;16.714;2023-07-22T10:45:52;1.70;;;1.60;;
18174;SDS011;9212;50.894;16.714;2023-07-22T10:48:25;8.95;;;1.88;;
18174;SDS011;9212;50.894;16.714;2023-07-22T10:50:53;3.95;;;1.70;;
18174;SDS011;9212;50.894;16.714;2023-07-22T10:53:22;8.98;;;1.90;;
18174;SDS011;9212;50.894;16.714;2023-07-22T10:56:04;3.25;;;1.83;;
18174;SDS011;9212;50.894;16.714;2023-07-22T10:58:32;4.22;;;1.90;;
18174;SDS011;9212;50.894;16.714;2023-07-22T11:04:12;7.53;;;1.90;;
18174;SDS011;9212;50.894;16.714;2023-07-22T11:09:35;5.45;;;1.90;;
18174;SDS011;9212;50.894;16.714;2023-07-22T11:12:03;5.03;;;2.13;;
18174;SDS011;9212;50.894;16.714;2023-07-22T11:14:31;5.60;;;2.05;;
18174;SDS011;9212;50.894;16.714;2023-07-22T11:16:59;1.95;;;1.60;;
18174;SDS011;9212;50.894;16.714;2023-07-22T11:19:30;4.32;;;1.90;;
18174;SDS011;9212;50.894;16.714;2023-07-22T11:21:57;4.22;;;1.92;;
18174;SDS011;9212;50.894;16.714;2023-07-22T11:24:25;7.43;;;2.20;;
18174;SDS011;9212;50.894;16.714;2023-07-22T11:26:52;14.48;;;2.40;;
18174;SDS011;9212;50.894;16.714;2023-07-22T11:29:20;3.92;;;1.88;;
18174;SDS011;9212;50.894;16.714;2023-07-22T11:31:48;3.47;;;1.52;;
18174;SDS011;9212;50.894;16.714;2023-07-22T11:34:16;2.92;;;2.00;;
18174;SDS011;9212;50.894;16.714;2023-07-22T11:36:45;3.28;;;2.13;;
18174;SDS011;9212;50.894;16.714;2023-07-22T11:39:14;3.75;;;2.10;;
18174;SDS011;9212;50.894;16.714;2023-07-22T11:41:41;2.95;;;1.90;;
18174;SDS011;9212;50.894;16.714;2023-07-22T11:44:10;5.57;;;2.65;;
18174;SDS011;9212;50.894;16.714;2023-07-22T11:46:46;3.95;;;2.17;;
18174;SDS011;9212;50.894;16.714;2023-07-22T11:49:21;9.93;;;2.10;;
18174;SDS011;9212;50.894;16.714;2023-07-22T11:51:49;3.25;;;2.10;;
18174;SDS011;9212;50.894;16.714;2023-07-22T11:54:17;4.00;;;2.05;;
18174;SDS011;9212;50.894;16.714;2023-07-22T11:56:45;4.20;;;2.03;;
18174;SDS011;9212;50.894;16.714;2023-07-22T11:59:12;2.83;;;1.80;;
18174;SDS011;9212;50.894;16.714;2023-07-22T12:01:42;1.70;;;1.60;;
18174;SDS011;9212;50.894;16.714;2023-07-22T12:04:10;2.20;;;2.00;;
18174;SDS011;9212;50.894;16.714;2023-07-22T12:06:37;2.30;;;2.10;;
18174;SDS011;9212;50.894;16.714;2023-07-22T12:09:06;5.70;;;1.80;;
18174;SDS011;9212;50.894;16.714;2023-07-22T12:11:34;2.42;;;2.08;;
18174;SDS011;9212;50.894;16.714;2023-07-22T12:14:08;3.00;;;1.83;;
18174;SDS011;9212;50.894;16.714;2023-07-22T12:16:36;2.38;;;1.95;;
18174;SDS011;9212;50.894;16.714;2023-07-22T12:19:04;3.40;;;2.05;;
18174;SDS011;9212;50.894;16.714;2023-07-22T12:21:31;2.17;;;1.95;;
18174;SDS011;9212;50.894;16.714;2023-07-22T12:23:58;2.53;;;1.77;;
18174;SDS011;9212;50.894;16.714;2023-07-22T12:26:27;2.10;;;1.90;;
18174;SDS011;9212;50.894;16.714;2023-07-22T12:28:54;5.97;;;2.35;;
18174;SDS011;9212;50.894;16.714;2023-07-22T12:31:22;3.08;;;1.73;;
18174;SDS011;9212;50.894;16.714;2023-07-22T12:33:49;3.42;;;1.88;;
18174;SDS011;9212;50.894;16.714;2023-07-22T12:36:16;6.07;;;1.88;;
18174;SDS011;9212;50.894;16.714;2023-07-22T12:38:44;1.60;;;1.50;;
18174;SDS011;9212;50.894;16.714;2023-07-22T12:41:11;2.15;;;1.98;;
18174;SDS011;9212;50.894;16.714;2023-07-22T12:43:50;2.47;;;2.13;;
18174;SDS011;9212;50.894;16.714;2023-07-22T12:46:17;3.33;;;2.05;;
18174;SDS011;9212;50.894;16.714;2023-07-22T12:48:45;3.65;;;2.03;;
18174;SDS011;9212;50.894;16.714;2023-07-22T12:51:12;2.05;;;1.88;;
18174;SDS011;9212;50.894;16.714;2023-07-22T12:53:39;2.72;;;2.10;;
18174;SDS011;9212;50.894;16.714;2023-07-22T12:56:06;2.75;;;1.80;;
18174;SDS011;9212;50.894;16.714;2023-07-22T12:58:34;10.15;;;2.00;;
18174;SDS011;9212;50.894;16.714;2023-07-22T13:01:03;2.78;;;1.58;;
18174;SDS011;9212;50.894;16.714;2023-07-22T13:03:30;1.83;;;1.70;;
18174;SDS011;9212;50.894;16.714;2023-07-22T13:05:57;2.35;;;1.83;;
18174;SDS011;9212;50.894;16.714;2023-07-22T13:08:25;2.50;;;2.30;;
18174;SDS011;9212;50.894;16.714;2023-07-22T13:10:52;2.85;;;2.10;;
18174;SDS011;9212;50.894;16.714;2023-07-22T13:13:20;3.83;;;2.13;;
18174;SDS011;9212;50.894;16.714;2023-07-22T13:15:48;2.88;;;2.30;;
18174;SDS011;9212;50.894;16.714;2023-07-22T13:18:16;3.85;;;2.10;;
18174;SDS011;9212;50.894;16.714;2023-07-22T13:20:44;1.95;;;1.83;;
18174;SDS011;9212;50.894;16.714;2023-07-22T13:23:11;2.55;;;2.05;;
18174;SDS011;9212;50.894;16.714;2023-07-22T13:25:38;2.55;;;2.08;;
18174;SDS011;9212;50.894;16.714;2023-07-22T13:28:05;4.13;;;2.08;;
18174;SDS011;9212;50.894;16.714;2023-07-22T13:30:33;3.53;;;1.90;;
18174;SDS011;9212;50.894;16.714;2023-07-22T13:33:00;3.65;;;2.13;;
18174;SDS011;9212;50.894;16.714;2023-07-22T13:35:29;4.43;;;1.80;;
18174;SDS011;9212;50.894;16.714;2023-07-22T13:37:56;8.25;;;2.47;;
18174;SDS011;9212;50.894;16.714;2023-07-22T13:40:23;3.05;;;1.80;;
18174;SDS011;9212;50.894;16.714;2023-07-22T13:42:51;5.00;;;2.20;;
18174;SDS011;9212;50.894;16.714;2023-07-22T13:45:18;4.97;;;2.03;;
18174;SDS011;9212;50.894;16.714;2023-07-22T13:47:45;1.90;;;1.80;;
18174;SDS011;9212;50.894;16.714;2023-07-22T13:50:12;2.10;;;1.77;;
18174;SDS011;9212;50.894;16.714;2023-07-22T13:52:41;3.13;;;1.83;;
18174;SDS011;9212;50.894;16.714;2023-07-22T13:55:09;3.15;;;2.00;;
18174;SDS011;9212;50.894;16.714;2023-07-22T13:57:36;8.27;;;2.65;;
18174;SDS011;9212;50.894;16.714;2023-07-22T14:00:03;1.45;;;1.45;;
18174;SDS011;9212;50.894;16.714;2023-07-22T14:02:33;4.30;;;2.25;;
18174;SDS011;9212;50.894;16.714;2023-07-22T14:05:00;1.85;;;1.75;;
18174;SDS011;9212;50.894;16.714;2023-07-22T14:07:28;3.47;;;2.33;;
18174;SDS011;9212;50.894;16.714;2023-07-22T14:09:57;2.17;;;1.98;;
18174;SDS011;9212;50.894;16.714;2023-07-22T14:12:24;2.13;;;1.92;;
18174;SDS011;9212;50.894;16.714;2023-07-22T14:14:51;2.42;;;2.17;;
18174;SDS011;9212;50.894;16.714;2023-07-22T14:17:18;5.32;;;2.08;;
18174;SDS011;9212;50.894;16.714;2023-07-22T14:19:46;1.92;;;1.75;;
18174;SDS011;9212;50.894;16.714;2023-07-22T14:22:13;1.98;;;1.77;;
18174;SDS011;9212;50.894;16.714;2023-07-22T14:24:40;1.88;;;1.70;;
18174;SDS011;9212;50.894;16.714;2023-07-22T14:27:09;3.03;;;2.03;;
18174;SDS011;9212;50.894;16.714;2023-07-22T14:29:36;3.80;;;2.30;;
18174;SDS011;9212;50.894;16.714;2023-07-22T14:32:04;4.05;;;2.00;;
18174;SDS011;9212;50.894;16.714;2023-07-22T14:34:32;4.20;;;2.08;;
18174;SDS011;9212;50.894;16.714;2023-07-22T14:36:59;2.00;;;1.80;;
18174;SDS011;9212;50.894;16.714;2023-07-22T14:39:29;4.28;;;1.80;;
18174;SDS011;9212;50.894;16.714;2023-07-22T14:41:56;1.80;;;1.67;;
18174;SDS011;9212;50.894;16.714;2023-07-22T14:44:25;2.75;;;2.10;;
18174;SDS011;9212;50.894;16.714;2023-07-22T14:46:52;4.75;;;2.50;;
18174;SDS011;9212;50.894;16.714;2023-07-22T14:49:19;4.88;;;2.30;;
18174;SDS011;9212;50.894;16.714;2023-07-22T14:51:46;3.10;;;2.33;;
18174;SDS011;9212;50.894;16.714;2023-07-22T14:54:14;2.17;;;1.98;;
18174;SDS011;9212;50.894;16.714;2023-07-22T14:56:41;3.67;;;2.10;;
18174;SDS011;9212;50.894;16.714;2023-07-22T14:59:08;3.97;;;2.05;;
18174;SDS011;9212;50.894;16.714;2023-07-22T15:01:39;2.22;;;1.85;;